sensor_id;sensor_type;location;lat;lon;timestamp;temperature;humidity
1976;DHT22;988;48.016;7.800;2023-05-10T00:01:34;14.70;99.90
1976;DHT22;988;48.016;7.800;2023-05-10T00:03:59;14.60;99.90
1976;DHT22;988;48.016;7.800;2023-05-10T00:06:25;14.60;99.90
1976;DHT22;988;48.016;7.800;2023-05-10T00:08:51;14.60;99.90
1976;DHT22;988;48.016;7.800;2023-05-10T00:11:16;14.70;99.90
1976;DHT22;988;48.016;7.800;2023-05-10T00:13:42;14.70;99.90
1976;DHT22;988;48.016;7.800;2023-05-10T00:16:07;14.80;99.90
1976;DHT22;988;48.016;7.800;2023-05-10T00:18:33;14.50;99.90
1976;DHT22;988;48.016;7.800;2023-05-10T00:20:59;14.60;99.90
1976;DHT22;988;48.016;7.800;2023-05-10T00:23:24;14.50;99.90
1976;DHT22;988;48.016;7.800;2023-05-10T00:25:50;14.50;99.90
1976;DHT22;988;48.016;7.800;2023-05-10T00:28:15;14.50;99.90
1976;DHT22;988;48.016;7.800;2023-05-10T00:30:41;14.60;99.90
1976;DHT22;988;48.016;7.800;2023-05-10T00:33:07;14.70;99.90
1976;DHT22;988;48.016;7.800;2023-05-10T00:35:32;14.60;99.90
1976;DHT22;988;48.016;7.800;2023-05-10T00:37:58;14.60;99.90
1976;DHT22;988;48.016;7.800;2023-05-10T00:40:23;14.60;99.90
1976;DHT22;988;48.016;7.800;2023-05-10T00:42:49;14.50;99.90
1976;DHT22;988;48.016;7.800;2023-05-10T00:45:14;14.40;99.90
1976;DHT22;988;48.016;7.800;2023-05-10T00:47:40;14.50;99.90
1976;DHT22;988;48.016;7.800;2023-05-10T00:50:06;14.40;99.90
1976;DHT22;988;48.016;7.800;2023-05-10T00:52:32;14.30;99.90
1976;DHT22;988;48.016;7.800;2023-05-10T00:54:58;14.40;99.90
1976;DHT22;988;48.016;7.800;2023-05-10T00:57:24;14.20;99.90
1976;DHT22;988;48.016;7.800;2023-05-10T00:59:50;14.30;99.90
1976;DHT22;988;48.016;7.800;2023-05-10T01:02:16;14.30;99.90
1976;DHT22;988;48.016;7.800;2023-05-10T01:04:43;14.20;99.90
1976;DHT22;988;48.016;7.800;2023-05-10T01:07:08;14.30;99.90
1976;DHT22;988;48.016;7.800;2023-05-10T01:09:34;14.30;99.90
1976;DHT22;988;48.016;7.800;2023-05-10T01:12:00;14.40;99.90
1976;DHT22;988;48.016;7.800;2023-05-10T01:14:27;14.50;99.90
1976;DHT22;988;48.016;7.800;2023-05-10T01:16:54;14.50;99.90
1976;DHT22;988;48.016;7.800;2023-05-10T01:19:23;14.50;99.90
1976;DHT22;988;48.016;7.800;2023-05-10T01:22:06;14.50;99.90
1976;DHT22;988;48.016;7.800;2023-05-10T01:30:28;14.50;99.90
1976;DHT22;988;48.016;7.800;2023-05-10T01:36:16;14.50;99.90
1976;DHT22;988;48.016;7.800;2023-05-10T01:38:53;14.10;99.90
1976;DHT22;988;48.016;7.800;2023-05-10T01:41:45;14.10;99.90
1976;DHT22;988;48.016;7.800;2023-05-10T01:46:54;13.90;99.90
1976;DHT22;988;48.016;7.800;2023-05-10T01:49:27;14.00;99.90
1976;DHT22;988;48.016;7.800;2023-05-10T01:52:00;14.20;99.90
1976;DHT22;988;48.016;7.800;2023-05-10T01:54:29;14.20;99.90
1976;DHT22;988;48.016;7.800;2023-05-10T01:57:00;14.10;99.90
1976;DHT22;988;48.016;7.800;2023-05-10T01:59:31;14.00;99.90
1976;DHT22;988;48.016;7.800;2023-05-10T02:02:02;14.00;99.90
1976;DHT22;988;48.016;7.800;2023-05-10T02:04:28;14.20;99.90
1976;DHT22;988;48.016;7.800;2023-05-10T02:06:55;14.00;99.90
1976;DHT22;988;48.016;7.800;2023-05-10T02:09:21;14.10;99.90
1976;DHT22;988;48.016;7.800;2023-05-10T02:11:49;14.20;99.90
1976;DHT22;988;48.016;7.800;2023-05-10T02:14:15;14.10;99.90
1976;DHT22;988;48.016;7.800;2023-05-10T02:16:43;14.20;99.90
1976;DHT22;988;48.016;7.800;2023-05-10T02:19:09;14.20;99.90
1976;DHT22;988;48.016;7.800;2023-05-10T02:21:35;14.30;99.90
1976;DHT22;988;48.016;7.800;2023-05-10T02:24:03;14.30;99.90
1976;DHT22;988;48.016;7.800;2023-05-10T02:26:30;14.30;99.90
1976;DHT22;988;48.016;7.800;2023-05-10T02:28:57;14.30;99.90
1976;DHT22;988;48.016;7.800;2023-05-10T02:31:23;14.30;99.90
1976;DHT22;988;48.016;7.800;2023-05-10T02:33:49;14.40;99.90
1976;DHT22;988;48.016;7.800;2023-05-10T02:36:16;14.30;99.90
1976;DHT22;988;48.016;7.800;2023-05-10T02:38:43;14.30;99.90
1976;DHT22;988;48.016;7.800;2023-05-10T02:41:10;14.20;99.90
1976;DHT22;988;48.016;7.800;2023-05-10T02:43:37;14.30;99.90
1976;DHT22;988;48.016;7.800;2023-05-10T02:46:05;14.30;99.90
1976;DHT22;988;48.016;7.800;2023-05-10T02:48:30;14.40;99.90
1976;DHT22;988;48.016;7.800;2023-05-10T02:51:04;14.40;99.90
1976;DHT22;988;48.016;7.800;2023-05-10T02:53:34;14.30;99.90
1976;DHT22;988;48.016;7.800;2023-05-10T02:56:05;14.30;99.90
1976;DHT22;988;48.016;7.800;2023-05-10T02:58:34;14.20;99.90
1976;DHT22;988;48.016;7.800;2023-05-10T03:01:00;14.20;99.90
1976;DHT22;988;48.016;7.800;2023-05-10T03:03:26;14.20;99.90
1976;DHT22;988;48.016;7.800;2023-05-10T03:05:51;14.20;99.90
1976;DHT22;988;48.016;7.800;2023-05-10T03:08:21;14.20;99.90
1976;DHT22;988;48.016;7.800;2023-05-10T03:16:26;14.20;99.90
1976;DHT22;988;48.016;7.800;2023-05-10T03:21:22;14.20;99.90
1976;DHT22;988;48.016;7.800;2023-05-10T03:23:59;14.00;99.90
1976;DHT22;988;48.016;7.800;2023-05-10T03:26:28;14.20;99.90
1976;DHT22;988;48.016;7.800;2023-05-10T03:28:55;14.20;99.90
1976;DHT22;988;48.016;7.800;2023-05-10T03:31:22;14.20;99.90
1976;DHT22;988;48.016;7.800;2023-05-10T03:33:48;14.30;99.90
1976;DHT22;988;48.016;7.800;2023-05-10T03:36:14;14.20;99.90
1976;DHT22;988;48.016;7.800;2023-05-10T03:38:40;14.00;99.90
1976;DHT22;988;48.016;7.800;2023-05-10T03:41:05;14.10;99.90
1976;DHT22;988;48.016;7.800;2023-05-10T03:43:31;14.10;99.90
1976;DHT22;988;48.016;7.800;2023-05-10T03:45:56;14.20;99.90
1976;DHT22;988;48.016;7.800;2023-05-10T03:48:22;14.20;99.90
1976;DHT22;988;48.016;7.800;2023-05-10T03:50:47;14.30;99.90
1976;DHT22;988;48.016;7.800;2023-05-10T03:53:14;14.20;99.90
1976;DHT22;988;48.016;7.800;2023-05-10T03:55:40;14.40;99.90
1976;DHT22;988;48.016;7.800;2023-05-10T03:58:06;14.30;99.90
1976;DHT22;988;48.016;7.800;2023-05-10T04:00:31;14.10;99.90
1976;DHT22;988;48.016;7.800;2023-05-10T04:02:57;14.10;99.90
1976;DHT22;988;48.016;7.800;2023-05-10T04:05:23;14.00;99.90
1976;DHT22;988;48.016;7.800;2023-05-10T04:07:49;14.00;99.90
1976;DHT22;988;48.016;7.800;2023-05-10T04:10:15;14.10;99.90
1976;DHT22;988;48.016;7.800;2023-05-10T04:12:41;14.10;99.90
1976;DHT22;988;48.016;7.800;2023-05-10T04:15:07;14.20;99.90
1976;DHT22;988;48.016;7.800;2023-05-10T04:17:33;14.20;99.90
1976;DHT22;988;48.016;7.800;2023-05-10T04:19:59;14.30;99.90
1976;DHT22;988;48.016;7.800;2023-05-10T04:22:24;14.40;99.90
1976;DHT22;988;48.016;7.800;2023-05-10T04:24:50;14.30;99.90
1976;DHT22;988;48.016;7.800;2023-05-10T04:27:15;14.30;99.90
1976;DHT22;988;48.016;7.800;2023-05-10T04:29:41;14.20;99.90
1976;DHT22;988;48.016;7.800;2023-05-10T04:32:07;14.30;99.90
1976;DHT22;988;48.016;7.800;2023-05-10T04:34:32;14.30;99.90
1976;DHT22;988;48.016;7.800;2023-05-10T04:36:59;14.20;99.90
1976;DHT22;988;48.016;7.800;2023-05-10T04:39:25;14.10;99.90
1976;DHT22;988;48.016;7.800;2023-05-10T04:41:50;14.10;99.90
1976;DHT22;988;48.016;7.800;2023-05-10T04:44:16;14.10;99.90
1976;DHT22;988;48.016;7.800;2023-05-10T04:46:41;14.10;99.90
1976;DHT22;988;48.016;7.800;2023-05-10T04:49:07;14.20;99.90
1976;DHT22;988;48.016;7.800;2023-05-10T04:51:32;14.10;99.90
1976;DHT22;988;48.016;7.800;2023-05-10T04:53:58;14.00;99.90
1976;DHT22;988;48.016;7.800;2023-05-10T04:56:24;13.90;99.90
1976;DHT22;988;48.016;7.800;2023-05-10T04:58:49;13.90;99.90
1976;DHT22;988;48.016;7.800;2023-05-10T05:01:15;14.10;99.90
1976;DHT22;988;48.016;7.800;2023-05-10T05:03:40;14.10;99.90
1976;DHT22;988;48.016;7.800;2023-05-10T05:06:06;14.10;99.90
1976;DHT22;988;48.016;7.800;2023-05-10T05:08:33;14.00;99.90
1976;DHT22;988;48.016;7.800;2023-05-10T05:10:59;14.10;99.90
1976;DHT22;988;48.016;7.800;2023-05-10T05:13:24;14.10;99.90
1976;DHT22;988;48.016;7.800;2023-05-10T05:15:50;14.20;99.90
1976;DHT22;988;48.016;7.800;2023-05-10T05:18:16;14.00;99.90
1976;DHT22;988;48.016;7.800;2023-05-10T05:20:42;14.10;99.90
1976;DHT22;988;48.016;7.800;2023-05-10T05:23:07;14.20;99.90
1976;DHT22;988;48.016;7.800;2023-05-10T05:25:33;14.20;99.90
1976;DHT22;988;48.016;7.800;2023-05-10T05:27:58;14.10;99.90
1976;DHT22;988;48.016;7.800;2023-05-10T05:30:24;14.10;99.90
1976;DHT22;988;48.016;7.800;2023-05-10T05:32:49;14.20;99.90
1976;DHT22;988;48.016;7.800;2023-05-10T05:35:15;14.20;99.90
1976;DHT22;988;48.016;7.800;2023-05-10T05:37:40;14.40;99.90
1976;DHT22;988;48.016;7.800;2023-05-10T05:40:07;14.20;99.90
1976;DHT22;988;48.016;7.800;2023-05-10T05:42:32;14.20;99.90
1976;DHT22;988;48.016;7.800;2023-05-10T05:44:58;14.30;99.90
1976;DHT22;988;48.016;7.800;2023-05-10T05:47:24;14.20;99.90
1976;DHT22;988;48.016;7.800;2023-05-10T05:49:50;14.20;99.90
1976;DHT22;988;48.016;7.800;2023-05-10T05:52:15;14.30;99.90
1976;DHT22;988;48.016;7.800;2023-05-10T05:54:41;14.20;99.90
1976;DHT22;988;48.016;7.800;2023-05-10T05:57:07;14.10;99.90
1976;DHT22;988;48.016;7.800;2023-05-10T05:59:32;14.00;99.90
1976;DHT22;988;48.016;7.800;2023-05-10T06:01:58;14.00;99.90
1976;DHT22;988;48.016;7.800;2023-05-10T06:04:23;13.80;99.90
1976;DHT22;988;48.016;7.800;2023-05-10T06:06:49;13.90;99.90
1976;DHT22;988;48.016;7.800;2023-05-10T06:09:15;13.80;99.90
1976;DHT22;988;48.016;7.800;2023-05-10T06:11:41;13.90;99.90
1976;DHT22;988;48.016;7.800;2023-05-10T06:14:06;13.80;99.90
1976;DHT22;988;48.016;7.800;2023-05-10T06:16:33;13.90;99.90
1976;DHT22;988;48.016;7.800;2023-05-10T06:18:59;13.90;99.90
1976;DHT22;988;48.016;7.800;2023-05-10T06:21:25;13.90;99.90
1976;DHT22;988;48.016;7.800;2023-05-10T06:23:50;14.00;99.90
1976;DHT22;988;48.016;7.800;2023-05-10T06:26:16;14.10;99.90
1976;DHT22;988;48.016;7.800;2023-05-10T06:28:42;14.10;99.90
1976;DHT22;988;48.016;7.800;2023-05-10T06:31:07;14.10;99.90
1976;DHT22;988;48.016;7.800;2023-05-10T06:33:33;14.30;99.90
1976;DHT22;988;48.016;7.800;2023-05-10T06:35:59;14.50;99.90
1976;DHT22;988;48.016;7.800;2023-05-10T06:38:25;14.50;99.90
1976;DHT22;988;48.016;7.800;2023-05-10T06:40:51;14.40;99.90
1976;DHT22;988;48.016;7.800;2023-05-10T06:43:16;14.40;99.90
1976;DHT22;988;48.016;7.800;2023-05-10T06:45:42;14.30;99.90
1976;DHT22;988;48.016;7.800;2023-05-10T06:48:08;14.20;99.90
1976;DHT22;988;48.016;7.800;2023-05-10T06:50:33;13.70;99.90
1976;DHT22;988;48.016;7.800;2023-05-10T06:53:00;13.80;99.90
1976;DHT22;988;48.016;7.800;2023-05-10T06:55:26;13.80;99.90
1976;DHT22;988;48.016;7.800;2023-05-10T06:57:51;13.90;99.90
1976;DHT22;988;48.016;7.800;2023-05-10T07:00:18;14.10;99.90
1976;DHT22;988;48.016;7.800;2023-05-10T07:02:44;14.10;99.90
1976;DHT22;988;48.016;7.800;2023-05-10T07:05:09;14.20;99.90
1976;DHT22;988;48.016;7.800;2023-05-10T07:07:35;14.30;99.90
1976;DHT22;988;48.016;7.800;2023-05-10T07:10:01;14.50;99.90
1976;DHT22;988;48.016;7.800;2023-05-10T07:12:27;14.80;99.90
1976;DHT22;988;48.016;7.800;2023-05-10T07:14:52;14.80;99.90
1976;DHT22;988;48.016;7.800;2023-05-10T07:17:18;14.70;99.90
1976;DHT22;988;48.016;7.800;2023-05-10T07:19:44;14.80;99.90
1976;DHT22;988;48.016;7.800;2023-05-10T07:22:09;15.00;99.90
1976;DHT22;988;48.016;7.800;2023-05-10T07:24:35;15.10;99.90
1976;DHT22;988;48.016;7.800;2023-05-10T07:27:01;15.40;99.90
1976;DHT22;988;48.016;7.800;2023-05-10T07:29:26;15.30;99.90
1976;DHT22;988;48.016;7.800;2023-05-10T07:31:52;15.70;99.90
1976;DHT22;988;48.016;7.800;2023-05-10T07:34:18;15.80;99.90
1976;DHT22;988;48.016;7.800;2023-05-10T07:36:44;16.30;99.90
1976;DHT22;988;48.016;7.800;2023-05-10T07:39:09;16.90;99.90
1976;DHT22;988;48.016;7.800;2023-05-10T07:41:35;17.50;99.90
1976;DHT22;988;48.016;7.800;2023-05-10T07:44:03;17.70;99.90
1976;DHT22;988;48.016;7.800;2023-05-10T07:46:29;17.90;99.90
1976;DHT22;988;48.016;7.800;2023-05-10T07:48:54;18.00;99.90
1976;DHT22;988;48.016;7.800;2023-05-10T07:51:20;18.10;99.90
1976;DHT22;988;48.016;7.800;2023-05-10T07:53:46;18.00;99.90
1976;DHT22;988;48.016;7.800;2023-05-10T07:56:23;18.00;99.90
1976;DHT22;988;48.016;7.800;2023-05-10T07:58:51;19.00;99.90
1976;DHT22;988;48.016;7.800;2023-05-10T08:01:17;20.10;99.90
1976;DHT22;988;48.016;7.800;2023-05-10T08:03:43;20.90;99.90
1976;DHT22;988;48.016;7.800;2023-05-10T08:06:08;20.40;99.90
1976;DHT22;988;48.016;7.800;2023-05-10T08:08:34;19.50;99.90
1976;DHT22;988;48.016;7.800;2023-05-10T08:10:59;19.40;99.90
1976;DHT22;988;48.016;7.800;2023-05-10T08:13:25;18.70;99.90
1976;DHT22;988;48.016;7.800;2023-05-10T08:15:52;18.10;99.90
1976;DHT22;988;48.016;7.800;2023-05-10T08:18:18;17.70;99.90
1976;DHT22;988;48.016;7.800;2023-05-10T08:20:44;17.40;99.90
1976;DHT22;988;48.016;7.800;2023-05-10T08:23:11;16.70;99.90
1976;DHT22;988;48.016;7.800;2023-05-10T08:25:37;16.70;99.90
1976;DHT22;988;48.016;7.800;2023-05-10T08:28:03;17.40;99.90
1976;DHT22;988;48.016;7.800;2023-05-10T08:30:28;18.80;99.90
1976;DHT22;988;48.016;7.800;2023-05-10T08:32:54;20.10;99.90
1976;DHT22;988;48.016;7.800;2023-05-10T08:35:19;20.70;99.90
1976;DHT22;988;48.016;7.800;2023-05-10T08:37:45;19.80;99.90
1976;DHT22;988;48.016;7.800;2023-05-10T08:40:11;18.70;99.90
1976;DHT22;988;48.016;7.800;2023-05-10T08:42:40;19.50;99.90
1976;DHT22;988;48.016;7.800;2023-05-10T08:45:08;19.00;99.90
1976;DHT22;988;48.016;7.800;2023-05-10T08:47:36;19.50;99.90
1976;DHT22;988;48.016;7.800;2023-05-10T08:50:03;19.60;99.90
1976;DHT22;988;48.016;7.800;2023-05-10T08:52:30;20.60;98.70
1976;DHT22;988;48.016;7.800;2023-05-10T08:54:56;20.50;96.20
1976;DHT22;988;48.016;7.800;2023-05-10T08:57:21;20.80;96.10
1976;DHT22;988;48.016;7.800;2023-05-10T08:59:47;20.30;95.90
1976;DHT22;988;48.016;7.800;2023-05-10T09:02:13;21.70;94.20
1976;DHT22;988;48.016;7.800;2023-05-10T09:04:39;22.00;91.80
1976;DHT22;988;48.016;7.800;2023-05-10T09:07:06;21.10;92.80
1976;DHT22;988;48.016;7.800;2023-05-10T09:09:33;20.60;94.60
1976;DHT22;988;48.016;7.800;2023-05-10T09:11:58;20.40;94.20
1976;DHT22;988;48.016;7.800;2023-05-10T09:14:25;20.10;94.00
1976;DHT22;988;48.016;7.800;2023-05-10T09:16:51;19.70;94.60
1976;DHT22;988;48.016;7.800;2023-05-10T09:19:17;19.50;94.80
1976;DHT22;988;48.016;7.800;2023-05-10T09:21:43;19.20;94.20
1976;DHT22;988;48.016;7.800;2023-05-10T09:24:08;19.40;92.80
1976;DHT22;988;48.016;7.800;2023-05-10T09:26:35;20.00;91.50
1976;DHT22;988;48.016;7.800;2023-05-10T09:29:02;20.20;90.50
1976;DHT22;988;48.016;7.800;2023-05-10T09:31:51;20.50;91.20
1976;DHT22;988;48.016;7.800;2023-05-10T09:34:19;21.00;87.40
1976;DHT22;988;48.016;7.800;2023-05-10T09:36:55;21.20;86.50
1976;DHT22;988;48.016;7.800;2023-05-10T09:39:30;21.40;84.40
1976;DHT22;988;48.016;7.800;2023-05-10T09:41:57;21.60;80.20
1976;DHT22;988;48.016;7.800;2023-05-10T09:44:23;22.30;79.40
1976;DHT22;988;48.016;7.800;2023-05-10T09:46:49;22.90;74.70
1976;DHT22;988;48.016;7.800;2023-05-10T09:49:16;24.20;70.80
1976;DHT22;988;48.016;7.800;2023-05-10T09:51:42;25.90;65.10
1976;DHT22;988;48.016;7.800;2023-05-10T09:54:13;27.20;58.20
1976;DHT22;988;48.016;7.800;2023-05-10T09:56:39;25.60;56.50
1976;DHT22;988;48.016;7.800;2023-05-10T09:59:07;26.40;56.30
1976;DHT22;988;48.016;7.800;2023-05-10T10:01:36;28.10;52.00
1976;DHT22;988;48.016;7.800;2023-05-10T10:04:06;29.00;49.40
1976;DHT22;988;48.016;7.800;2023-05-10T10:06:39;27.30;49.10
1976;DHT22;988;48.016;7.800;2023-05-10T10:09:06;27.00;51.40
1976;DHT22;988;48.016;7.800;2023-05-10T10:11:38;27.10;50.50
1976;DHT22;988;48.016;7.800;2023-05-10T10:14:04;27.70;49.90
1976;DHT22;988;48.016;7.800;2023-05-10T10:16:31;28.20;47.00
1976;DHT22;988;48.016;7.800;2023-05-10T10:18:57;27.90;49.50
1976;DHT22;988;48.016;7.800;2023-05-10T10:21:23;27.60;48.90
1976;DHT22;988;48.016;7.800;2023-05-10T10:23:49;29.60;48.70
1976;DHT22;988;48.016;7.800;2023-05-10T10:26:17;26.80;52.10
1976;DHT22;988;48.016;7.800;2023-05-10T10:31:41;24.20;54.10
1976;DHT22;988;48.016;7.800;2023-05-10T10:34:15;24.10;53.10
1976;DHT22;988;48.016;7.800;2023-05-10T10:36:46;26.10;54.10
1976;DHT22;988;48.016;7.800;2023-05-10T10:39:12;25.50;52.20
1976;DHT22;988;48.016;7.800;2023-05-10T10:41:56;27.50;50.60
1976;DHT22;988;48.016;7.800;2023-05-10T10:49:49;28.20;46.40
1976;DHT22;988;48.016;7.800;2023-05-10T10:55:00;23.00;55.00
1976;DHT22;988;48.016;7.800;2023-05-10T10:57:28;22.00;56.00
1976;DHT22;988;48.016;7.800;2023-05-10T11:00:37;21.40;57.70
1976;DHT22;988;48.016;7.800;2023-05-10T11:03:09;21.70;60.50
1976;DHT22;988;48.016;7.800;2023-05-10T11:08:18;27.60;49.90
1976;DHT22;988;48.016;7.800;2023-05-10T11:13:32;28.10;48.80
1976;DHT22;988;48.016;7.800;2023-05-10T11:15:58;28.10;47.50
1976;DHT22;988;48.016;7.800;2023-05-10T11:18:27;26.00;49.60
1976;DHT22;988;48.016;7.800;2023-05-10T11:21:01;24.20;52.70
1976;DHT22;988;48.016;7.800;2023-05-10T11:23:32;22.40;55.30
1976;DHT22;988;48.016;7.800;2023-05-10T11:25:59;21.20;57.60
1976;DHT22;988;48.016;7.800;2023-05-10T11:28:27;20.50;60.10
1976;DHT22;988;48.016;7.800;2023-05-10T11:30:54;20.50;60.10
1976;DHT22;988;48.016;7.800;2023-05-10T11:33:20;20.10;63.10
1976;DHT22;988;48.016;7.800;2023-05-10T11:35:46;19.40;62.50
1976;DHT22;988;48.016;7.800;2023-05-10T11:38:12;18.80;64.50
1976;DHT22;988;48.016;7.800;2023-05-10T11:40:39;18.50;65.20
1976;DHT22;988;48.016;7.800;2023-05-10T11:43:05;18.00;66.80
1976;DHT22;988;48.016;7.800;2023-05-10T11:45:34;18.30;66.50
1976;DHT22;988;48.016;7.800;2023-05-10T11:48:00;18.40;65.70
1976;DHT22;988;48.016;7.800;2023-05-10T11:50:26;18.80;67.10
1976;DHT22;988;48.016;7.800;2023-05-10T11:52:53;18.70;67.30
1976;DHT22;988;48.016;7.800;2023-05-10T11:55:19;18.50;66.70
1976;DHT22;988;48.016;7.800;2023-05-10T11:57:45;18.50;67.40
1976;DHT22;988;48.016;7.800;2023-05-10T12:00:12;18.80;69.10
1976;DHT22;988;48.016;7.800;2023-05-10T12:02:38;19.10;67.60
1976;DHT22;988;48.016;7.800;2023-05-10T12:05:04;19.70;64.70
1976;DHT22;988;48.016;7.800;2023-05-10T12:07:31;19.90;62.20
1976;DHT22;988;48.016;7.800;2023-05-10T12:10:13;19.90;62.30
1976;DHT22;988;48.016;7.800;2023-05-10T12:12:45;19.90;59.40
1976;DHT22;988;48.016;7.800;2023-05-10T12:15:17;19.40;60.00
1976;DHT22;988;48.016;7.800;2023-05-10T12:17:44;18.70;63.70
1976;DHT22;988;48.016;7.800;2023-05-10T12:20:28;18.40;64.40
1976;DHT22;988;48.016;7.800;2023-05-10T12:22:56;18.20;67.60
1976;DHT22;988;48.016;7.800;2023-05-10T12:25:24;18.10;70.10
1976;DHT22;988;48.016;7.800;2023-05-10T12:27:57;17.90;68.50
1976;DHT22;988;48.016;7.800;2023-05-10T12:30:24;17.60;71.50
1976;DHT22;988;48.016;7.800;2023-05-10T12:32:50;17.50;73.00
1976;DHT22;988;48.016;7.800;2023-05-10T12:35:16;17.60;74.90
1976;DHT22;988;48.016;7.800;2023-05-10T12:37:43;17.80;75.30
1976;DHT22;988;48.016;7.800;2023-05-10T12:40:10;17.40;79.60
1976;DHT22;988;48.016;7.800;2023-05-10T12:42:36;16.10;98.90
1976;DHT22;988;48.016;7.800;2023-05-10T12:45:04;15.50;99.90
1976;DHT22;988;48.016;7.800;2023-05-10T12:47:31;15.30;99.90
1976;DHT22;988;48.016;7.800;2023-05-10T12:49:56;15.30;99.90
1976;DHT22;988;48.016;7.800;2023-05-10T12:52:22;15.60;99.90
1976;DHT22;988;48.016;7.800;2023-05-10T12:54:48;16.10;99.90
1976;DHT22;988;48.016;7.800;2023-05-10T12:57:14;16.30;99.90
1976;DHT22;988;48.016;7.800;2023-05-10T12:59:40;16.80;99.90
1976;DHT22;988;48.016;7.800;2023-05-10T13:02:06;16.90;99.90
1976;DHT22;988;48.016;7.800;2023-05-10T13:04:32;17.30;99.90
1976;DHT22;988;48.016;7.800;2023-05-10T13:06:57;18.10;97.00
1976;DHT22;988;48.016;7.800;2023-05-10T13:09:24;18.20;94.70
1976;DHT22;988;48.016;7.800;2023-05-10T13:11:50;18.30;94.00
1976;DHT22;988;48.016;7.800;2023-05-10T13:14:16;17.70;92.00
1976;DHT22;988;48.016;7.800;2023-05-10T13:16:42;17.60;92.40
1976;DHT22;988;48.016;7.800;2023-05-10T13:19:07;17.70;90.10
1976;DHT22;988;48.016;7.800;2023-05-10T13:21:33;17.50;90.80
1976;DHT22;988;48.016;7.800;2023-05-10T13:23:58;17.00;92.60
1976;DHT22;988;48.016;7.800;2023-05-10T13:26:25;16.90;94.50
1976;DHT22;988;48.016;7.800;2023-05-10T13:28:51;16.80;93.80
1976;DHT22;988;48.016;7.800;2023-05-10T13:31:17;17.00;94.00
1976;DHT22;988;48.016;7.800;2023-05-10T13:33:44;17.40;94.60
1976;DHT22;988;48.016;7.800;2023-05-10T13:36:10;18.50;94.40
1976;DHT22;988;48.016;7.800;2023-05-10T13:38:35;21.20;90.50
1976;DHT22;988;48.016;7.800;2023-05-10T13:41:01;21.20;82.40
1976;DHT22;988;48.016;7.800;2023-05-10T13:43:26;21.50;82.10
1976;DHT22;988;48.016;7.800;2023-05-10T13:45:52;21.90;79.10
1976;DHT22;988;48.016;7.800;2023-05-10T13:48:18;21.90;77.20
1976;DHT22;988;48.016;7.800;2023-05-10T13:50:43;21.70;75.10
1976;DHT22;988;48.016;7.800;2023-05-10T13:53:09;21.90;76.80
1976;DHT22;988;48.016;7.800;2023-05-10T13:55:34;22.10;77.90
1976;DHT22;988;48.016;7.800;2023-05-10T13:58:01;21.40;73.70
1976;DHT22;988;48.016;7.800;2023-05-10T14:00:26;21.20;71.60
1976;DHT22;988;48.016;7.800;2023-05-10T14:02:52;20.30;75.20
1976;DHT22;988;48.016;7.800;2023-05-10T14:05:18;21.00;71.40
1976;DHT22;988;48.016;7.800;2023-05-10T14:07:43;21.30;72.50
1976;DHT22;988;48.016;7.800;2023-05-10T14:10:09;20.60;68.30
1976;DHT22;988;48.016;7.800;2023-05-10T14:12:35;20.70;67.40
1976;DHT22;988;48.016;7.800;2023-05-10T14:15:00;20.70;67.30
1976;DHT22;988;48.016;7.800;2023-05-10T14:17:26;20.50;66.60
1976;DHT22;988;48.016;7.800;2023-05-10T14:19:52;19.60;68.70
1976;DHT22;988;48.016;7.800;2023-05-10T14:22:18;19.40;70.60
1976;DHT22;988;48.016;7.800;2023-05-10T14:24:43;19.60;71.40
1976;DHT22;988;48.016;7.800;2023-05-10T14:27:12;19.40;74.50
1976;DHT22;988;48.016;7.800;2023-05-10T14:29:37;19.50;73.30
1976;DHT22;988;48.016;7.800;2023-05-10T14:32:03;19.00;74.20
1976;DHT22;988;48.016;7.800;2023-05-10T14:34:29;18.50;73.10
1976;DHT22;988;48.016;7.800;2023-05-10T14:36:54;17.80;74.30
1976;DHT22;988;48.016;7.800;2023-05-10T14:39:20;18.00;76.70
1976;DHT22;988;48.016;7.800;2023-05-10T14:41:46;18.00;77.20
1976;DHT22;988;48.016;7.800;2023-05-10T14:44:12;18.20;77.00
1976;DHT22;988;48.016;7.800;2023-05-10T14:46:38;18.10;76.70
1976;DHT22;988;48.016;7.800;2023-05-10T14:49:04;18.30;78.00
1976;DHT22;988;48.016;7.800;2023-05-10T14:51:30;18.80;75.30
1976;DHT22;988;48.016;7.800;2023-05-10T14:53:57;19.20;75.00
1976;DHT22;988;48.016;7.800;2023-05-10T14:56:22;19.50;74.50
1976;DHT22;988;48.016;7.800;2023-05-10T14:58:49;19.60;71.60
1976;DHT22;988;48.016;7.800;2023-05-10T15:01:15;19.90;71.30
1976;DHT22;988;48.016;7.800;2023-05-10T15:03:40;20.10;73.10
1976;DHT22;988;48.016;7.800;2023-05-10T15:06:08;19.90;72.40
1976;DHT22;988;48.016;7.800;2023-05-10T15:08:34;19.20;73.80
1976;DHT22;988;48.016;7.800;2023-05-10T15:10:59;19.30;75.80
1976;DHT22;988;48.016;7.800;2023-05-10T15:13:25;19.20;76.30
1976;DHT22;988;48.016;7.800;2023-05-10T15:15:50;19.00;77.40
1976;DHT22;988;48.016;7.800;2023-05-10T15:18:16;18.50;76.20
1976;DHT22;988;48.016;7.800;2023-05-10T15:20:42;18.50;77.00
1976;DHT22;988;48.016;7.800;2023-05-10T15:23:07;18.80;78.10
1976;DHT22;988;48.016;7.800;2023-05-10T15:25:33;19.00;76.00
1976;DHT22;988;48.016;7.800;2023-05-10T15:28:03;18.70;75.00
1976;DHT22;988;48.016;7.800;2023-05-10T15:30:29;19.20;74.10
1976;DHT22;988;48.016;7.800;2023-05-10T15:32:55;19.90;73.70
1976;DHT22;988;48.016;7.800;2023-05-10T15:35:21;20.10;70.10
1976;DHT22;988;48.016;7.800;2023-05-10T15:37:47;20.00;70.90
1976;DHT22;988;48.016;7.800;2023-05-10T15:40:13;20.70;70.40
1976;DHT22;988;48.016;7.800;2023-05-10T15:42:39;20.50;69.10
1976;DHT22;988;48.016;7.800;2023-05-10T15:45:05;19.80;69.80
1976;DHT22;988;48.016;7.800;2023-05-10T15:47:31;19.90;71.70
1976;DHT22;988;48.016;7.800;2023-05-10T15:49:57;19.60;71.10
1976;DHT22;988;48.016;7.800;2023-05-10T15:52:22;20.00;69.00
1976;DHT22;988;48.016;7.800;2023-05-10T15:54:49;19.80;69.10
1976;DHT22;988;48.016;7.800;2023-05-10T15:57:14;19.80;69.10
1976;DHT22;988;48.016;7.800;2023-05-10T15:59:40;20.00;71.50
1976;DHT22;988;48.016;7.800;2023-05-10T16:02:06;19.60;72.20
1976;DHT22;988;48.016;7.800;2023-05-10T16:04:32;19.20;73.50
1976;DHT22;988;48.016;7.800;2023-05-10T16:06:58;19.00;72.80
1976;DHT22;988;48.016;7.800;2023-05-10T16:09:24;18.40;75.00
1976;DHT22;988;48.016;7.800;2023-05-10T16:11:49;18.00;76.30
1976;DHT22;988;48.016;7.800;2023-05-10T16:14:15;17.70;77.70
1976;DHT22;988;48.016;7.800;2023-05-10T16:16:41;17.60;78.70
1976;DHT22;988;48.016;7.800;2023-05-10T16:19:07;17.40;80.60
1976;DHT22;988;48.016;7.800;2023-05-10T16:21:33;17.10;81.20
1976;DHT22;988;48.016;7.800;2023-05-10T16:23:59;17.00;84.20
1976;DHT22;988;48.016;7.800;2023-05-10T16:26:25;17.10;85.00
1976;DHT22;988;48.016;7.800;2023-05-10T16:28:50;17.60;86.00
1976;DHT22;988;48.016;7.800;2023-05-10T16:31:16;18.10;81.20
1976;DHT22;988;48.016;7.800;2023-05-10T16:33:44;18.30;80.40
1976;DHT22;988;48.016;7.800;2023-05-10T16:36:10;18.60;78.60
1976;DHT22;988;48.016;7.800;2023-05-10T16:38:36;18.90;78.00
1976;DHT22;988;48.016;7.800;2023-05-10T16:41:02;19.10;77.30
1976;DHT22;988;48.016;7.800;2023-05-10T16:43:28;19.20;77.50
1976;DHT22;988;48.016;7.800;2023-05-10T16:45:54;19.20;79.20
1976;DHT22;988;48.016;7.800;2023-05-10T16:48:20;19.40;79.10
1976;DHT22;988;48.016;7.800;2023-05-10T16:50:46;19.40;79.40